Custer, Washington
Current Conditions -  °F | °C
As of 2:53 AM on Friday 24 Oct 2014 (Local Time) from KBLI Reporting Station
Overcast Overcast  
Wind Chill: 49°   Ceiling: 4300
Heat Index: 49°   Visibility: 10mi
Dew Point: 44°   Wind: 0mph
Humidity: 83%   Direction: NA
Pressure: 30.01"   Gusts: NA
Location:  48.92°N, 122.64°W
Report Text: KBLI 240953Z AUTO 00000KT 10SM OVC043 09/07 A3001 RMK AO2 SLP170 T00940067
Loading
Personal Weather Stations






























Interactive Weather Map
Tropical Storm Tracking
New forecast layout! Learn more

10-Day Weather Forecast

Advertisements
Track Severe Weather on mobile